»·PEaware :: SWA8750 KLAX-KPHX

SWA8750 :: KLAX-KPHX

FLIGHT INFORMATION

Flight Status: Arrived
Operator:
Southwest Airlines
More flights by this operator :: More flights under this callsign
Pilot: Paul A. (20189)
Aircraft: BOEING 737-700
(B737)
More flights by this aircraft type
Origin: KLAX Los Angeles Intl
United States
Destination: KPHX Phoenix Sky Harbor Intl
United States
More flights between these airports :: More routes between these airports
Route: DOTSS2 CNERY BLH HYDRR1
File this flight plan on PilotEdge
Remarks:
Altitude:
(Current/Filed)
33,000ft
Speed:
(Current/Filed)
455kts
Departed: 09-Oct-18 07:40 AM
Arrived: 09-Oct-18 08:37 AM
Distance/Time
Traveled:
322nm/0:57
Distance/Time
To Go:
Arrived

Flight Plot

Page will automatically refresh every two minutes.

Flight plan parsing failed; only flown route is shown


Map Options




Map Legend


Flown Route
Filed Route
Departure Airport
Arrival Airport
Navaid (VOR, NDB)
Fix

Horizontal Profiles

Position Reports

Time Latitude Longitude Heading Altitude Ground
Speed
09-Oct-18 07:25 33.947912 -118.401382 163 133ft 0kts
09-Oct-18 07:26 33.947912 -118.401382 163 134ft 0kts
09-Oct-18 07:27 33.947912 -118.401382 163 134ft 0kts
09-Oct-18 07:28 33.947912 -118.401382 163 134ft 0kts
09-Oct-18 07:29 33.947912 -118.401382 163 134ft 0kts
09-Oct-18 07:30 33.947912 -118.401382 163 134ft 0kts
09-Oct-18 07:31 33.947912 -118.401382 163 134ft 0kts
09-Oct-18 07:32 33.947912 -118.401382 163 134ft 0kts
09-Oct-18 07:33 33.947912 -118.401382 163 134ft 0kts
09-Oct-18 07:34 33.947977 -118.401405 163 134ft 2kts
09-Oct-18 07:35 33.948482 -118.401796 113 134ft 0kts
09-Oct-18 07:36 33.948482 -118.401796 113 134ft 0kts
09-Oct-18 07:37 33.948482 -118.401795 113 134ft 0kts
09-Oct-18 07:38 33.948481 -118.401793 113 134ft 0kts
09-Oct-18 07:39 33.949035 -118.400908 31 134ft 6kts
09-Oct-18 07:40 33.949371 -118.400883 247 134ft 6kts
09-Oct-18 07:41 33.949261 -118.401531 301 134ft 1kts
09-Oct-18 07:42 33.949361 -118.410037 263 134ft 115kts
09-Oct-18 07:43 33.943828 -118.465796 266 2702ft 174kts
09-Oct-18 07:44 33.939948 -118.540305 263 4362ft 267kts
09-Oct-18 07:45 33.922747 -118.627559 225 8338ft 279kts
09-Oct-18 07:46 33.845776 -118.636552 162 11377ft 322kts
09-Oct-18 07:47 33.763177 -118.574790 144 12864ft 388kts
09-Oct-18 07:48 33.685269 -118.484256 113 15438ft 402kts
09-Oct-18 07:49 33.646787 -118.331002 90 18768ft 416kts
09-Oct-18 07:50 33.644442 -118.220237 83 20948ft 423kts
09-Oct-18 07:51 33.644807 -118.082704 83 22868ft 437kts
09-Oct-18 07:52 33.644554 -117.936368 83 24258ft 440kts
09-Oct-18 07:53 33.639903 -117.786758 92 26287ft 461kts
09-Oct-18 07:54 33.604929 -117.634931 100 28062ft 480kts
09-Oct-18 07:55 33.566510 -117.479973 99 29630ft 489kts
09-Oct-18 07:56 33.527504 -117.323835 100 31493ft 489kts
09-Oct-18 07:57 33.503340 -117.165825 85 32933ft 479kts
09-Oct-18 07:58 33.501422 -117.007195 84 32943ft 476kts
09-Oct-18 07:59 33.499051 -116.848777 84 32933ft 476kts
09-Oct-18 08:00 33.497034 -116.690280 84 32923ft 476kts
09-Oct-18 08:01 33.494195 -116.531236 84 32916ft 477kts
09-Oct-18 08:02 33.491534 -116.372871 83 32884ft 476kts
09-Oct-18 08:03 33.489162 -116.214324 83 32862ft 476kts
09-Oct-18 08:04 33.488700 -116.056188 76 32854ft 469kts
09-Oct-18 08:05 33.522582 -115.909134 62 32857ft 455kts
09-Oct-18 08:06 33.564554 -115.766201 62 32863ft 455kts
09-Oct-18 08:07 33.605656 -115.622195 66 32862ft 459kts
09-Oct-18 08:08 33.615602 -115.466029 85 32867ft 480kts
09-Oct-18 08:09 33.610888 -115.305827 84 32873ft 480kts
09-Oct-18 08:10 33.606596 -115.145410 84 32881ft 481kts
09-Oct-18 08:11 33.602649 -114.984717 85 32887ft 483kts
09-Oct-18 08:12 33.597918 -114.823347 85 32908ft 484kts
09-Oct-18 08:13 33.577571 -114.662132 97 32135ft 501kts
09-Oct-18 08:14 33.545167 -114.500299 96 31132ft 494kts
09-Oct-18 08:15 33.514678 -114.343452 94 29228ft 472kts
09-Oct-18 08:16 33.484908 -114.193078 95 27125ft 455kts
09-Oct-18 08:17 33.455818 -114.047201 95 25076ft 439kts
09-Oct-18 08:18 33.428154 -113.909587 95 23809ft 418kts
09-Oct-18 08:19 33.400916 -113.773428 96 22896ft 412kts
09-Oct-18 08:20 33.373925 -113.639968 97 20565ft 410kts
09-Oct-18 08:21 33.346936 -113.508093 98 19313ft 406kts
09-Oct-18 08:22 33.319204 -113.356246 97 17824ft 396kts
09-Oct-18 08:23 33.300793 -113.249910 97 16780ft 388kts
09-Oct-18 08:24 33.282245 -113.125025 95 15561ft 375kts
09-Oct-18 08:25 33.275563 -113.006965 83 14289ft 339kts
09-Oct-18 08:26 33.278662 -112.898091 84 13014ft 309kts
09-Oct-18 08:27 33.288320 -112.801217 65 11818ft 275kts
09-Oct-18 08:28 33.318740 -112.719476 63 10130ft 270kts
09-Oct-18 08:29 33.350173 -112.636897 63 9761ft 274kts
09-Oct-18 08:30 33.381511 -112.554627 64 8713ft 264kts
09-Oct-18 08:31 33.409908 -112.478247 66 7702ft 242kts
09-Oct-18 08:32 33.428941 -112.402148 87 6666ft 238kts
09-Oct-18 08:33 33.429043 -112.324320 89 5578ft 219kts
09-Oct-18 08:34 33.428992 -112.255715 89 4752ft 199kts
09-Oct-18 08:35 33.428953 -112.193762 89 3818ft 176kts
09-Oct-18 08:36 33.428915 -112.128013 89 2774ft 161kts
09-Oct-18 08:37 33.428894 -112.087366 90 2122ft 138kts
09-Oct-18 08:38 33.428812 -112.043159 90 1410ft 128kts
09-Oct-18 08:39 33.428904 -112.012062 78 1143ft 24kts
09-Oct-18 08:40 33.429765 -112.010340 66 1143ft 15kts
09-Oct-18 08:41 33.431685 -112.008988 2 1143ft 2kts
09-Oct-18 08:42 33.432791 -112.007061 74 1143ft 12kts
09-Oct-18 08:43 33.432845 -111.997657 89 1143ft 24kts
09-Oct-18 08:44 33.434020 -111.996021 297 1143ft 0kts

Navigation Log

Ident Type
Flight plan parsing failed, navigation log unavailable